createdAt,value
2016-12-12T00:00:25.679Z,0
2016-12-12T00:01:35.730Z,0
2016-12-12T00:02:45.757Z,0
2016-12-12T00:03:55.504Z,0
2016-12-12T00:05:05.866Z,0
2016-12-12T00:06:16.217Z,0
2016-12-12T00:07:26.241Z,0
2016-12-12T00:08:36.255Z,0
2016-12-12T00:09:46.273Z,0
2016-12-12T00:10:56.610Z,0
2016-12-12T00:12:06.969Z,0
2016-12-12T00:13:16.989Z,0
2016-12-12T00:14:27.354Z,0
2016-12-12T00:15:37.713Z,0
2016-12-12T00:16:48.053Z,0
2016-12-12T00:17:58.383Z,0
2016-12-12T00:19:08.712Z,0
2016-12-12T00:20:19.071Z,0
2016-12-12T00:21:29.404Z,0
2016-12-12T00:22:39.774Z,0
2016-12-12T00:23:49.798Z,0
2016-12-12T00:24:59.814Z,0
2016-12-12T00:26:09.832Z,0
2016-12-12T00:27:20.164Z,0
2016-12-12T00:28:30.522Z,0
2016-12-12T00:29:40.543Z,0
2016-12-12T00:30:50.555Z,0
2016-12-12T00:32:00.891Z,0
2016-12-12T00:33:10.288Z,0
2016-12-12T00:34:19.994Z,0
2016-12-12T00:35:30.326Z,0
2016-12-12T00:36:40.034Z,0
2016-12-12T00:37:50.054Z,0
2016-12-12T00:38:59.772Z,0
2016-12-12T00:40:10.113Z,0
2016-12-12T00:41:20.134Z,0
2016-12-12T00:42:29.831Z,0
2016-12-12T00:43:39.837Z,0
2016-12-12T00:44:50.172Z,0
2016-12-12T00:45:59.578Z,0
2016-12-12T00:47:09.607Z,0
2016-12-12T00:48:19.311Z,0
2016-12-12T00:49:29.636Z,0
2016-12-12T00:50:39.964Z,0
2016-12-12T00:51:49.680Z,0
2016-12-12T00:52:59.737Z,0
2016-12-12T00:54:10.090Z,0
2016-12-12T00:55:19.813Z,0
2016-12-12T00:56:30.163Z,0
2016-12-12T00:57:40.208Z,0
2016-12-12T00:58:50.232Z,0
2016-12-12T01:00:00.279Z,0
2016-12-12T01:01:09.994Z,0
2016-12-12T01:02:20.331Z,0
2016-12-12T01:03:30.660Z,0
2016-12-12T01:04:41.009Z,0
2016-12-12T01:05:51.348Z,0
2016-12-12T01:07:01.385Z,0
2016-12-12T01:08:11.089Z,0
2016-12-12T01:09:21.421Z,0
2016-12-12T01:10:31.760Z,0
2016-12-12T01:11:42.074Z,0
2016-12-12T01:12:51.472Z,0
2016-12-12T01:14:01.485Z,0
2016-12-12T01:15:11.511Z,0
2016-12-12T01:16:21.217Z,0
2016-12-12T01:17:30.610Z,0
2016-12-12T01:18:40.941Z,0
2016-12-12T01:19:50.958Z,0
2016-12-12T01:21:01.324Z,0
2016-12-12T01:22:11.651Z,0
2016-12-12T01:23:21.982Z,0
2016-12-12T01:24:31.994Z,0
2016-12-12T01:25:42.031Z,0
2016-12-12T01:26:51.427Z,0
2016-12-12T01:28:01.756Z,0
2016-12-12T01:29:12.087Z,0
2016-12-12T01:30:22.424Z,0
2016-12-12T01:31:32.520Z,0
2016-12-12T01:32:42.537Z,0
2016-12-12T01:33:52.874Z,0
2016-12-12T01:35:02.895Z,0
2016-12-12T01:36:12.598Z,0
2016-12-12T01:37:22.617Z,0
2016-12-12T01:38:32.955Z,0
2016-12-12T01:39:42.664Z,0
2016-12-12T01:40:52.994Z,0
2016-12-12T01:42:02.711Z,0
2016-12-12T01:43:12.726Z,0
2016-12-12T01:44:22.434Z,0
2016-12-12T01:45:32.437Z,0
2016-12-12T01:46:42.762Z,0
2016-12-12T01:47:52.779Z,0
2016-12-12T01:49:02.806Z,0
2016-12-12T01:50:12.823Z,0
2016-12-12T01:51:23.165Z,0
2016-12-12T01:52:33.494Z,0
2016-12-12T01:53:43.548Z,0
2016-12-12T01:54:53.600Z,0
2016-12-12T01:56:03.924Z,0
2016-12-12T01:57:14.258Z,0
2016-12-12T01:58:24.284Z,0
2016-12-12T01:59:33.996Z,0
2016-12-12T02:00:44.332Z,0
2016-12-12T02:01:54.349Z,0
2016-12-12T02:03:04.075Z,0
2016-12-12T02:04:14.093Z,0
2016-12-12T02:05:24.421Z,0
2016-12-12T02:06:34.761Z,0
2016-12-12T02:07:44.773Z,0
2016-12-12T02:08:54.814Z,0
2016-12-12T02:10:05.165Z,0
2016-12-12T02:11:15.178Z,0
2016-12-12T02:12:25.506Z,0
2016-12-12T02:13:35.562Z,0
2016-12-12T02:14:45.588Z,0
2016-12-12T02:15:55.916Z,0
2016-12-12T02:17:05.983Z,0
2016-12-12T02:18:16.328Z,0
2016-12-12T02:19:26.350Z,0
2016-12-12T02:20:36.679Z,0
2016-12-12T02:21:47.023Z,0
2016-12-12T02:22:57.359Z,0
2016-12-12T02:24:07.692Z,0
2016-12-12T02:25:17.424Z,0
2016-12-12T02:26:27.436Z,0
2016-12-12T02:27:37.772Z,0
2016-12-12T02:28:47.789Z,0
2016-12-12T02:29:58.115Z,0
2016-12-12T02:31:08.450Z,0
2016-12-12T02:32:18.150Z,0
2016-12-12T02:33:28.166Z,0
2016-12-12T02:34:38.178Z,0
2016-12-12T02:35:48.505Z,0
2016-12-12T02:36:58.840Z,0
2016-12-12T02:38:09.158Z,0
2016-12-12T02:39:19.191Z,0
2016-12-12T02:40:28.936Z,0
2016-12-12T02:41:38.642Z,0
2016-12-12T02:42:48.681Z,0
2016-12-12T02:43:59.021Z,0
2016-12-12T02:45:09.046Z,0
2016-12-12T02:46:18.744Z,0
2016-12-12T02:47:29.072Z,0
2016-12-12T02:48:38.807Z,0
2016-12-12T02:49:48.820Z,0
2016-12-12T02:50:58.522Z,0
2016-12-12T02:52:08.533Z,0
2016-12-12T02:53:18.241Z,0
2016-12-12T02:54:28.566Z,0
2016-12-12T02:55:38.879Z,0
2016-12-12T02:56:49.206Z,0
2016-12-12T02:57:59.538Z,0
2016-12-12T02:59:09.566Z,0
2016-12-12T03:00:19.595Z,0
2016-12-12T03:01:29.922Z,0
2016-12-12T03:33:23.983Z,0
2016-12-12T03:34:33.980Z,0
2016-12-12T03:35:44.011Z,0
2016-12-12T03:36:54.344Z,0
2016-12-12T03:38:04.660Z,0
2016-12-12T03:39:14.683Z,0
2016-12-12T03:40:25.007Z,0
2016-12-12T03:41:35.320Z,0
2016-12-12T03:42:45.393Z,0
2016-12-12T03:43:55.409Z,0
2016-12-12T03:45:05.165Z,0
2016-12-12T03:46:15.502Z,0
2016-12-12T03:47:25.853Z,0
2016-12-12T03:48:36.215Z,0
2016-12-12T03:49:45.926Z,0
2016-12-12T03:50:55.633Z,0
2016-12-12T03:52:05.652Z,0
2016-12-12T03:53:15.667Z,0
2016-12-12T03:54:26.005Z,0
2016-12-12T03:55:36.034Z,0
2016-12-12T03:56:46.361Z,0
2016-12-12T03:57:56.697Z,0
2016-12-12T03:59:06.710Z,0
2016-12-12T04:00:16.726Z,0
2016-12-12T04:01:26.754Z,0
2016-12-12T04:02:36.785Z,0
2016-12-12T04:03:47.122Z,0
2016-12-12T04:04:57.473Z,0
2016-12-12T04:06:07.234Z,0
2016-12-12T04:07:17.246Z,0
2016-12-12T04:08:27.253Z,0
2016-12-12T04:09:37.596Z,0
2016-12-12T04:10:47.918Z,0
2016-12-12T04:11:57.983Z,0
2016-12-12T04:13:08.014Z,0
2016-12-12T04:14:18.117Z,0
2016-12-12T04:15:28.508Z,0
2016-12-12T04:16:38.829Z,0
2016-12-12T04:17:48.842Z,0
2016-12-12T04:18:58.549Z,0
2016-12-12T04:20:08.880Z,0
2016-12-12T04:21:18.591Z,0
2016-12-12T04:22:28.608Z,0
2016-12-12T04:23:38.945Z,0
2016-12-12T04:24:48.956Z,0
2016-12-12T04:25:59.297Z,0
2016-12-12T04:27:09.339Z,0
2016-12-12T04:28:19.652Z,0
2016-12-12T04:29:29.667Z,0
2016-12-12T04:30:39.384Z,0
2016-12-12T04:31:49.698Z,0
2016-12-12T04:32:59.717Z,0
2016-12-12T04:34:10.074Z,0
2016-12-12T04:35:20.404Z,0
2016-12-12T04:36:30.727Z,0
2016-12-12T04:37:40.739Z,0
2016-12-12T04:38:51.079Z,0
2016-12-12T04:40:01.413Z,0
2016-12-12T04:41:11.743Z,0
2016-12-12T04:42:21.764Z,0
2016-12-12T04:43:31.820Z,0
2016-12-12T04:44:41.847Z,0
2016-12-12T04:45:51.864Z,0
2016-12-12T04:47:02.195Z,0
2016-12-12T04:48:12.202Z,0
2016-12-12T04:49:22.248Z,0
2016-12-12T04:50:32.270Z,0
2016-12-12T04:51:42.284Z,0
2016-12-12T04:52:52.292Z,0
2016-12-12T04:54:02.306Z,0
2016-12-12T04:55:12.680Z,0
2016-12-12T04:56:23.009Z,0
2016-12-12T04:57:33.343Z,0
2016-12-12T04:58:43.360Z,0
2016-12-12T04:59:53.383Z,0
2016-12-12T05:01:03.410Z,0
2016-12-12T05:02:13.760Z,0
2016-12-12T05:03:24.166Z,0
2016-12-12T05:04:34.524Z,0
2016-12-12T05:05:44.551Z,0
2016-12-12T05:06:54.874Z,0
2016-12-12T05:08:04.888Z,0
2016-12-12T05:09:15.216Z,0
2016-12-12T05:10:25.542Z,0
2016-12-12T05:11:35.888Z,0
2016-12-12T05:12:46.265Z,0
2016-12-12T05:13:56.307Z,0
2016-12-12T05:15:06.634Z,0
2016-12-12T05:16:16.957Z,0
2016-12-12T05:17:27.283Z,0
2016-12-12T05:18:37.615Z,0
2016-12-12T05:19:47.963Z,0
2016-12-12T05:20:58.323Z,0
2016-12-12T05:22:08.340Z,0
2016-12-12T05:23:18.361Z,0
2016-12-12T05:24:28.689Z,0
2016-12-12T05:25:39.055Z,0
2016-12-12T05:26:49.081Z,0
2016-12-12T05:27:59.400Z,0
2016-12-12T05:29:09.099Z,0
2016-12-12T05:30:19.420Z,0
2016-12-12T05:31:29.138Z,0
2016-12-12T05:32:39.469Z,0
2016-12-12T05:33:49.174Z,0
2016-12-12T05:34:59.224Z,0
2016-12-12T05:36:09.548Z,0
2016-12-12T05:37:19.892Z,0
2016-12-12T05:38:29.909Z,0
2016-12-12T05:39:40.238Z,0
2016-12-12T05:40:50.578Z,0
2016-12-12T05:42:00.899Z,0
2016-12-12T05:43:10.911Z,0
2016-12-12T05:44:21.238Z,0
2016-12-12T05:45:31.260Z,0
2016-12-12T05:46:41.298Z,0
2016-12-12T05:47:51.668Z,0
2016-12-12T05:49:01.690Z,0
2016-12-12T05:50:12.031Z,0
2016-12-12T05:51:22.037Z,0
2016-12-12T05:52:31.740Z,0
2016-12-12T05:53:41.751Z,0
2016-12-12T05:54:51.764Z,0
2016-12-12T05:56:01.786Z,0
2016-12-12T05:57:12.128Z,0
2016-12-12T05:58:22.474Z,0
2016-12-12T05:59:32.856Z,0
2016-12-12T06:00:42.876Z,0
2016-12-12T06:01:52.895Z,0
2016-12-12T06:03:02.596Z,0
2016-12-12T06:04:12.948Z,0
2016-12-12T06:05:22.971Z,0
2016-12-12T06:06:33.340Z,0
2016-12-12T06:07:43.391Z,0
2016-12-12T06:08:53.714Z,0
2016-12-12T06:10:03.741Z,0
2016-12-12T06:11:13.753Z,0
2016-12-12T06:12:23.461Z,0
2016-12-12T06:13:33.803Z,0
2016-12-12T06:14:44.139Z,0
2016-12-12T06:15:53.849Z,0
2016-12-12T06:17:03.627Z,0
2016-12-12T06:18:13.973Z,0
2016-12-12T06:19:24.305Z,0
2016-12-12T06:20:34.322Z,0
2016-12-12T06:21:44.338Z,0
2016-12-12T06:22:54.350Z,0
2016-12-12T06:24:04.377Z,0
2016-12-12T06:25:14.402Z,0
2016-12-12T06:26:24.720Z,0
2016-12-12T06:27:35.045Z,0
2016-12-12T06:28:45.072Z,0
2016-12-12T06:29:55.087Z,0
2016-12-12T06:31:05.452Z,0
2016-12-12T06:32:15.470Z,0
2016-12-12T06:33:25.796Z,0
2016-12-12T06:34:35.807Z,0
2016-12-12T06:35:45.826Z,0
2016-12-12T06:36:56.191Z,0
2016-12-12T06:38:06.520Z,0
2016-12-12T06:39:16.859Z,0
2016-12-12T06:40:27.184Z,0
2016-12-12T06:41:37.198Z,0
2016-12-12T06:42:46.919Z,0
2016-12-12T06:43:57.251Z,5
2016-12-12T06:45:07.582Z,5
2016-12-12T06:46:17.920Z,5
2016-12-12T06:47:28.260Z,5
2016-12-12T06:48:38.273Z,5
2016-12-12T06:49:48.319Z,10
2016-12-12T06:50:58.025Z,10
2016-12-12T06:52:08.037Z,10
2016-12-12T06:53:18.069Z,15
2016-12-12T06:54:28.421Z,15
2016-12-12T06:55:38.133Z,15
2016-12-12T06:56:48.470Z,15
2016-12-12T06:57:58.810Z,20
2016-12-12T06:59:08.828Z,20
2016-12-12T07:00:18.224Z,20
2016-12-12T07:01:28.260Z,20
2016-12-12T07:02:38.824Z,20
2016-12-12T07:03:48.855Z,20
2016-12-12T07:04:58.577Z,25
2016-12-12T07:06:08.919Z,20
2016-12-12T07:07:19.250Z,25
2016-12-12T07:08:29.651Z,25
2016-12-12T07:09:39.901Z,25
2016-12-12T07:10:49.959Z,25
2016-12-12T07:12:00.282Z,30
2016-12-12T07:13:10.334Z,30
2016-12-12T07:14:20.664Z,30
2016-12-12T07:15:30.372Z,30
2016-12-12T07:16:40.708Z,30
2016-12-12T07:17:50.734Z,30
2016-12-12T07:19:00.763Z,35
2016-12-12T07:20:10.774Z,35
2016-12-12T07:21:21.111Z,35
2016-12-12T07:22:31.442Z,35
2016-12-12T07:23:41.778Z,35
2016-12-12T07:24:52.118Z,30
2016-12-12T07:26:02.138Z,30
2016-12-12T07:27:12.479Z,30
2016-12-12T07:28:22.827Z,25
2016-12-12T07:29:32.833Z,25
2016-12-12T07:30:42.569Z,25
2016-12-12T07:31:52.906Z,25
2016-12-12T07:33:02.917Z,25
2016-12-12T07:34:13.245Z,25
2016-12-12T07:35:23.604Z,25
2016-12-12T07:36:33.929Z,25
2016-12-12T07:37:43.654Z,25
2016-12-12T07:38:53.990Z,30
2016-12-12T07:40:04.331Z,35
2016-12-12T07:41:14.341Z,35
2016-12-12T07:42:24.661Z,30
2016-12-12T07:43:34.359Z,30
2016-12-12T07:44:44.710Z,30
2016-12-12T07:45:54.762Z,30
2016-12-12T07:47:05.092Z,30
2016-12-12T07:48:15.427Z,30
2016-12-12T07:49:25.440Z,35
2016-12-12T07:50:35.829Z,45
2016-12-12T07:51:45.840Z,45
2016-12-12T07:52:55.902Z,40
2016-12-12T07:54:05.931Z,40
2016-12-12T07:55:16.260Z,45
2016-12-12T07:56:26.292Z,45
2016-12-12T07:57:36.645Z,50
2016-12-12T07:58:46.346Z,50
2016-12-12T07:59:56.399Z,55
2016-12-12T08:01:06.441Z,55
2016-12-12T08:02:16.777Z,50
2016-12-12T08:03:27.113Z,55
2016-12-12T08:04:36.514Z,60
2016-12-12T08:05:46.871Z,60
2016-12-12T08:06:57.204Z,60
2016-12-12T08:08:07.552Z,65
2016-12-12T08:09:17.578Z,70
2016-12-12T08:10:26.963Z,75
2016-12-12T08:11:37.317Z,70
2016-12-12T08:12:47.637Z,60
2016-12-12T08:13:58.019Z,50
2016-12-12T08:15:08.043Z,40
2016-12-12T08:16:18.052Z,35
2016-12-12T08:17:27.765Z,25
2016-12-12T08:18:37.780Z,25
2016-12-12T08:19:47.801Z,30
2016-12-12T08:20:57.814Z,35
2016-12-12T08:22:07.825Z,40
2016-12-12T08:23:17.836Z,40
2016-12-12T08:24:27.554Z,45
2016-12-12T08:25:37.010Z,50
2016-12-12T08:26:47.032Z,50
2016-12-12T08:27:56.729Z,50
2016-12-12T08:29:07.053Z,60
2016-12-12T08:30:17.082Z,65
2016-12-12T08:31:27.095Z,80
2016-12-12T08:32:37.420Z,85
2016-12-12T08:33:47.772Z,85
2016-12-12T08:34:58.103Z,75
2016-12-12T08:36:08.430Z,75
2016-12-12T08:37:18.774Z,75
2016-12-12T08:38:28.785Z,65
2016-12-12T08:39:39.116Z,55
2016-12-12T08:40:49.137Z,50
2016-12-12T08:41:59.502Z,50
2016-12-12T08:43:09.215Z,55
2016-12-12T08:44:19.242Z,60
2016-12-12T08:45:29.571Z,65
2016-12-12T08:46:39.897Z,70
2016-12-12T08:47:50.232Z,75
2016-12-12T08:49:00.557Z,60
2016-12-12T08:50:10.902Z,45
2016-12-12T08:51:21.237Z,30
2016-12-12T08:52:31.560Z,20
2016-12-12T08:53:41.586Z,15
2016-12-12T08:54:51.658Z,20
2016-12-12T08:56:01.682Z,25
2016-12-12T08:57:11.712Z,35
2016-12-12T08:58:22.043Z,40
2016-12-12T08:59:32.065Z,45
2016-12-12T09:00:42.398Z,50
2016-12-12T09:01:52.728Z,35
2016-12-12T09:03:02.435Z,25
2016-12-12T09:04:12.454Z,20
2016-12-12T09:05:22.478Z,20
2016-12-12T09:06:32.499Z,25
2016-12-12T09:07:41.911Z,25
2016-12-12T09:08:51.929Z,30
2016-12-12T09:10:02.255Z,30
2016-12-12T09:11:12.303Z,35
2016-12-12T09:12:22.371Z,35
2016-12-12T09:13:32.081Z,45
2016-12-12T09:14:42.417Z,45
2016-12-12T09:15:52.429Z,45
2016-12-12T09:17:02.766Z,55
2016-12-12T09:18:13.089Z,65
2016-12-12T09:19:23.424Z,75
2016-12-12T09:20:33.456Z,75
2016-12-12T09:21:43.482Z,70
2016-12-12T09:22:53.493Z,50
2016-12-12T09:24:03.826Z,40
2016-12-12T09:25:13.842Z,30
2016-12-12T09:26:23.548Z,25
2016-12-12T09:27:33.887Z,25
2016-12-12T09:28:44.262Z,25
2016-12-12T09:29:54.584Z,30
2016-12-12T09:31:03.982Z,40
2016-12-12T09:32:14.004Z,50
2016-12-12T09:33:24.334Z,50
2016-12-12T09:34:34.048Z,50
2016-12-12T09:35:43.793Z,60
2016-12-12T09:36:54.111Z,60
2016-12-12T09:38:03.841Z,60
2016-12-12T09:39:13.858Z,55
2016-12-12T09:40:23.865Z,45
2016-12-12T09:41:33.876Z,45
2016-12-12T09:42:43.893Z,40
2016-12-12T09:43:54.219Z,35
2016-12-12T09:45:04.554Z,35
2016-12-12T09:46:14.267Z,40
2016-12-12T09:47:24.595Z,40
2016-12-12T09:48:34.611Z,45
2016-12-12T09:49:44.952Z,55
2016-12-12T09:50:55.340Z,60
2016-12-12T09:52:05.343Z,60
2016-12-12T09:53:15.438Z,60
2016-12-12T09:54:25.759Z,60
2016-12-12T09:55:35.457Z,60
2016-12-12T09:56:45.471Z,55
2016-12-12T09:57:55.504Z,55
2016-12-12T09:59:05.841Z,65
2016-12-12T10:00:15.858Z,70
2016-12-12T10:01:25.872Z,60
2016-12-12T10:02:35.576Z,55
2016-12-12T10:03:45.613Z,55
2016-12-12T10:04:55.630Z,55
2016-12-12T10:06:05.656Z,55
2016-12-12T10:07:15.670Z,55
2016-12-12T10:08:26.005Z,55
2016-12-12T10:09:36.031Z,65
2016-12-12T10:10:46.365Z,70
2016-12-12T10:11:56.411Z,80
2016-12-12T10:13:06.739Z,75
2016-12-12T10:14:17.092Z,80
2016-12-12T10:15:27.422Z,95
2016-12-12T10:16:37.182Z,95
2016-12-12T10:17:47.199Z,80
2016-12-12T10:18:57.231Z,75
2016-12-12T10:20:07.253Z,90
2016-12-12T10:21:17.584Z,80
2016-12-12T10:22:27.292Z,75
2016-12-12T10:23:37.317Z,80
2016-12-12T10:24:47.335Z,70
2016-12-12T10:25:57.660Z,60
2016-12-12T10:27:07.992Z,55
2016-12-12T10:28:17.086Z,60
2016-12-12T10:29:26.800Z,55
2016-12-12T10:30:37.133Z,50
2016-12-12T10:31:47.169Z,60
2016-12-12T10:32:57.185Z,80
2016-12-12T10:34:07.522Z,85
2016-12-12T10:35:17.538Z,90
2016-12-12T10:36:27.860Z,90
2016-12-12T10:37:38.188Z,85
2016-12-12T10:38:47.904Z,75
2016-12-12T10:39:58.236Z,70
2016-12-12T10:41:07.957Z,65
2016-12-12T10:42:18.289Z,70
2016-12-12T10:43:28.005Z,80
2016-12-12T10:44:38.342Z,70
2016-12-12T10:45:48.058Z,60
2016-12-12T10:46:58.405Z,55
2016-12-12T10:48:08.416Z,50
2016-12-12T10:49:18.754Z,55
2016-12-12T10:50:29.083Z,65
2016-12-12T10:51:39.089Z,75
2016-12-12T10:52:49.420Z,65
2016-12-12T10:53:59.757Z,70
2016-12-12T10:55:10.108Z,85
2016-12-12T10:56:20.374Z,80
2016-12-12T10:57:30.380Z,70
2016-12-12T10:58:40.098Z,75
2016-12-12T10:59:49.795Z,75
2016-12-12T11:00:59.821Z,80
2016-12-12T11:02:09.876Z,85
2016-12-12T11:03:20.209Z,85
2016-12-12T11:04:29.946Z,90
2016-12-12T11:05:39.643Z,90
2016-12-12T11:06:49.974Z,105
2016-12-12T11:07:59.361Z,95
2016-12-12T11:09:09.682Z,90
2016-12-12T11:10:19.700Z,85
2016-12-12T11:11:29.731Z,85
2016-12-12T11:12:40.079Z,90
2016-12-12T11:13:50.400Z,100
2016-12-12T11:15:00.107Z,110
2016-12-12T11:16:10.437Z,110
2016-12-12T11:17:20.779Z,115
2016-12-12T11:18:31.111Z,105
2016-12-12T11:19:41.117Z,110
2016-12-12T11:20:51.145Z,130
2016-12-12T11:22:01.482Z,95
2016-12-12T11:23:11.232Z,85
2016-12-12T11:24:20.944Z,85
2016-12-12T11:25:45.861Z,85
2016-12-12T11:26:55.573Z,90
2016-12-12T11:28:05.606Z,80
2016-12-12T11:29:15.333Z,70
2016-12-12T11:30:25.368Z,75
2016-12-12T11:31:35.715Z,70
2016-12-12T11:32:46.096Z,60
2016-12-12T11:33:56.453Z,60
2016-12-12T11:35:06.475Z,50
2016-12-12T11:36:16.496Z,50
2016-12-12T11:37:26.838Z,45
2016-12-12T11:38:36.859Z,45
2016-12-12T11:39:47.181Z,45
2016-12-12T11:40:57.520Z,50
2016-12-12T11:42:07.858Z,50
2016-12-12T11:43:18.187Z,50
2016-12-12T11:44:28.515Z,55
2016-12-12T11:45:38.839Z,60
2016-12-12T11:46:48.230Z,60
2016-12-12T11:47:58.584Z,55
2016-12-12T11:49:08.605Z,50
2016-12-12T11:50:18.945Z,55
2016-12-12T11:51:28.978Z,60
2016-12-12T11:52:39.311Z,65
2016-12-12T11:53:49.016Z,60
2016-12-12T11:54:59.363Z,55
2016-12-12T11:56:09.696Z,45
2016-12-12T11:57:19.731Z,45
2016-12-12T11:58:30.063Z,40
2016-12-12T11:59:40.398Z,45
2016-12-12T12:00:50.777Z,35
2016-12-12T12:02:00.798Z,30
2016-12-12T12:03:11.132Z,30
2016-12-12T12:04:21.162Z,40
2016-12-12T12:05:31.189Z,45
2016-12-12T12:06:41.534Z,35
2016-12-12T12:07:51.574Z,40
2016-12-12T12:09:01.599Z,45
2016-12-12T12:10:11.615Z,45
2016-12-12T12:11:21.967Z,55
2016-12-12T12:12:32.298Z,50
2016-12-12T12:13:42.327Z,50
2016-12-12T12:14:52.337Z,50
2016-12-12T12:16:02.390Z,45
2016-12-12T12:17:12.451Z,50
2016-12-12T12:18:22.487Z,55
2016-12-12T12:19:32.827Z,50
2016-12-12T12:20:43.195Z,60
2016-12-12T12:21:53.543Z,65
2016-12-12T12:23:03.275Z,70
2016-12-12T12:24:13.006Z,75
2016-12-12T12:25:23.333Z,80
2016-12-12T12:26:33.664Z,80
2016-12-12T12:27:44.005Z,85
2016-12-12T12:28:53.721Z,90
2016-12-12T12:30:03.748Z,95
2016-12-12T12:31:14.080Z,80
2016-12-12T12:32:24.422Z,70
2016-12-12T12:33:34.769Z,75
2016-12-12T12:34:45.121Z,85
2016-12-12T12:35:55.462Z,85
2016-12-12T12:37:05.478Z,85
2016-12-12T12:38:15.515Z,85
2016-12-12T12:39:25.521Z,80
2016-12-12T12:40:35.848Z,70
2016-12-12T12:41:46.164Z,50
2016-12-12T12:42:55.870Z,40
2016-12-12T12:44:06.208Z,40
2016-12-12T12:45:15.919Z,50
2016-12-12T12:46:25.952Z,75
2016-12-12T12:47:36.273Z,80
2016-12-12T12:48:45.994Z,85
2016-12-12T12:49:56.327Z,85
2016-12-12T12:51:06.393Z,80
2016-12-12T12:52:16.824Z,75
2016-12-12T12:53:26.522Z,70
2016-12-12T12:54:36.538Z,60
2016-12-12T12:55:46.894Z,60
2016-12-12T12:56:56.922Z,70
2016-12-12T12:58:06.637Z,75
2016-12-12T12:59:16.674Z,80
2016-12-12T13:00:26.697Z,75
2016-12-12T13:01:36.717Z,80
2016-12-12T13:02:47.041Z,85
2016-12-12T13:03:57.057Z,85
2016-12-12T13:05:07.388Z,90
2016-12-12T13:06:17.423Z,115
2016-12-12T13:07:27.775Z,85
2016-12-12T13:08:37.498Z,70
2016-12-12T13:09:47.511Z,60
2016-12-12T13:10:57.902Z,90
2016-12-12T13:12:07.618Z,55
2016-12-12T13:13:17.945Z,65
2016-12-12T13:14:28.285Z,50
2016-12-12T13:15:38.618Z,65
2016-12-12T13:16:48.964Z,50
2016-12-12T13:17:58.981Z,55
2016-12-12T13:19:09.343Z,50
2016-12-12T13:20:19.055Z,50
2016-12-12T13:21:29.391Z,90
2016-12-12T13:22:39.738Z,60
2016-12-12T13:23:49.459Z,90
2016-12-12T13:24:59.181Z,75
2016-12-12T13:26:09.518Z,90
2016-12-12T13:27:19.843Z,60
2016-12-12T13:28:30.166Z,55
2016-12-12T13:29:40.179Z,55
2016-12-12T13:30:50.239Z,105
2016-12-12T13:32:00.586Z,100
2016-12-12T13:33:10.289Z,105
2016-12-12T13:34:20.622Z,110
2016-12-12T13:35:30.965Z,115
2016-12-12T13:36:40.993Z,115
2016-12-12T13:37:51.022Z,110
2016-12-12T13:39:01.361Z,105
2016-12-12T13:40:11.378Z,100
2016-12-12T13:41:21.700Z,80
2016-12-12T13:42:31.732Z,85
2016-12-12T13:43:42.087Z,80
2016-12-12T13:44:52.095Z,70
2016-12-12T13:46:02.420Z,45
2016-12-12T13:47:12.463Z,45
2016-12-12T13:48:22.795Z,85
2016-12-12T13:49:32.501Z,80
2016-12-12T13:50:42.534Z,85
2016-12-12T13:51:52.287Z,65
2016-12-12T13:53:02.658Z,65
2016-12-12T13:54:12.694Z,65
2016-12-12T13:55:23.031Z,35
2016-12-12T13:56:33.052Z,40
2016-12-12T13:57:42.753Z,50
2016-12-12T13:58:52.796Z,50
2016-12-12T14:00:02.503Z,25
2016-12-12T14:01:12.504Z,20
2016-12-12T14:02:22.886Z,10
2016-12-12T14:03:32.971Z,10
2016-12-12T14:04:44.493Z,10
2016-12-12T14:05:54.882Z,15
2016-12-12T14:07:05.385Z,15
2016-12-12T14:08:15.170Z,15
2016-12-12T14:09:25.325Z,20
2016-12-12T14:10:35.359Z,25
2016-12-12T14:11:45.744Z,25
2016-12-12T14:12:56.299Z,25
2016-12-12T14:14:06.722Z,30
2016-12-12T14:15:17.239Z,25
2016-12-12T14:16:27.305Z,25
2016-12-12T14:17:37.697Z,25
2016-12-12T14:18:48.057Z,20
2016-12-12T14:19:58.394Z,20
2016-12-12T14:21:08.136Z,15
2016-12-12T14:22:18.498Z,15
2016-12-12T14:23:28.860Z,15
2016-12-12T14:24:38.963Z,10
2016-12-12T14:25:49.362Z,15
2016-12-12T14:26:59.696Z,15
2016-12-12T14:28:10.072Z,10
2016-12-12T14:29:20.115Z,15
2016-12-12T14:30:30.167Z,15
2016-12-12T14:31:40.593Z,15
2016-12-12T14:32:50.325Z,15
2016-12-12T14:34:00.393Z,15
2016-12-12T14:35:10.828Z,15
2016-12-12T14:36:20.612Z,15
2016-12-12T14:37:30.996Z,15
2016-12-12T14:38:41.085Z,15
2016-12-12T14:39:51.431Z,15
2016-12-12T14:41:00.827Z,10
2016-12-12T14:42:11.233Z,10
2016-12-12T14:43:20.623Z,10
2016-12-12T14:44:30.973Z,10
2016-12-12T14:45:41.009Z,10
2016-12-12T14:46:51.357Z,10
2016-12-12T14:48:01.385Z,10
2016-12-12T14:49:11.780Z,10
2016-12-12T14:50:21.495Z,10
2016-12-12T14:51:31.853Z,5
2016-12-12T14:52:42.272Z,5
2016-12-12T14:53:52.845Z,5
2016-12-12T14:55:02.861Z,5
2016-12-12T14:56:12.934Z,5
2016-12-12T14:57:23.278Z,5
2016-12-12T14:58:33.373Z,5
2016-12-12T14:59:43.397Z,5
2016-12-12T15:00:53.746Z,5
2016-12-12T15:02:03.504Z,0
2016-12-12T15:03:13.888Z,0
2016-12-12T15:04:23.923Z,0
2016-12-12T15:05:33.946Z,0
2016-12-12T15:06:44.298Z,0
2016-12-12T15:07:54.638Z,0
2016-12-12T15:09:04.977Z,0
2016-12-12T15:10:14.697Z,0
2016-12-12T15:11:24.414Z,0
2016-12-12T15:12:34.482Z,0
2016-12-12T15:13:44.882Z,0
2016-12-12T15:14:55.263Z,0
2016-12-12T15:16:05.291Z,0
2016-12-12T15:17:15.006Z,0
2016-12-12T15:18:25.389Z,0
2016-12-12T15:19:35.128Z,0
2016-12-12T15:20:45.532Z,0
2016-12-12T15:21:55.902Z,0
2016-12-12T15:23:06.242Z,0
2016-12-12T15:24:16.270Z,0
2016-12-12T15:25:26.634Z,0
2016-12-12T15:26:36.984Z,0
2016-12-12T15:27:47.313Z,0
2016-12-12T15:28:57.643Z,0
2016-12-12T15:30:07.980Z,0
2016-12-12T15:31:18.307Z,0
2016-12-12T15:32:28.654Z,0
2016-12-12T15:33:38.673Z,0
2016-12-12T15:34:49.027Z,0
2016-12-12T15:35:59.050Z,0
2016-12-12T15:37:09.403Z,0
2016-12-12T15:38:19.729Z,0
2016-12-12T15:39:29.438Z,0
2016-12-12T15:40:39.156Z,0
2016-12-12T15:41:49.172Z,0
2016-12-12T15:42:58.933Z,0
2016-12-12T15:44:09.265Z,0
2016-12-12T15:45:19.623Z,0
2016-12-12T15:46:29.634Z,0
2016-12-12T15:47:39.664Z,0
2016-12-12T15:48:49.423Z,0
2016-12-12T15:49:59.133Z,0
2016-12-12T15:51:09.487Z,0
2016-12-12T15:52:19.515Z,0
2016-12-12T15:53:29.848Z,0
2016-12-12T15:54:40.226Z,0
2016-12-12T15:55:50.261Z,0
2016-12-12T15:57:00.294Z,0
2016-12-12T15:58:10.021Z,0
2016-12-12T15:59:20.357Z,0
2016-12-12T16:00:30.397Z,0
2016-12-12T16:01:40.743Z,0
2016-12-12T16:02:51.109Z,0
2016-12-12T16:04:01.470Z,0
2016-12-12T16:05:11.500Z,0
2016-12-12T16:06:21.537Z,0
2016-12-12T16:07:31.550Z,0
2016-12-12T16:08:41.579Z,0
2016-12-12T16:09:51.287Z,0
2016-12-12T16:11:01.627Z,0
2016-12-12T16:12:11.969Z,0
2016-12-12T16:13:22.318Z,0
2016-12-12T16:14:32.346Z,0
2016-12-12T16:15:42.697Z,0
2016-12-12T16:16:53.068Z,0
2016-12-12T16:18:03.106Z,0
2016-12-12T16:19:13.121Z,0
2016-12-12T16:20:23.469Z,0
2016-12-12T16:21:33.811Z,0
2016-12-12T16:22:44.149Z,0
2016-12-12T16:23:54.488Z,0
2016-12-12T16:25:04.850Z,0
2016-12-12T16:26:15.206Z,0
2016-12-12T16:27:25.559Z,0
2016-12-12T16:28:35.593Z,0
2016-12-12T16:29:45.629Z,0
2016-12-12T16:30:55.984Z,0
2016-12-12T16:32:06.028Z,0
2016-12-12T16:33:15.429Z,0
2016-12-12T16:34:25.175Z,0
2016-12-12T16:35:34.927Z,0
2016-12-12T16:36:44.640Z,0
2016-12-12T16:37:55.015Z,0
2016-12-12T16:39:05.367Z,0
2016-12-12T16:40:15.726Z,0
2016-12-12T16:41:26.129Z,0
2016-12-12T16:42:36.486Z,0
2016-12-12T16:43:46.538Z,0
2016-12-12T16:44:56.888Z,0
2016-12-12T16:46:07.218Z,0
2016-12-12T16:47:17.243Z,0
2016-12-12T16:48:27.263Z,0
2016-12-12T16:49:37.619Z,0
2016-12-12T16:50:47.654Z,0
2016-12-12T16:51:57.997Z,0
2016-12-12T16:53:08.347Z,0
2016-12-12T16:54:18.703Z,0
2016-12-12T16:55:28.721Z,0
2016-12-12T16:56:39.058Z,0
2016-12-12T16:57:49.119Z,0
2016-12-12T16:58:59.458Z,0
2016-12-12T17:00:09.513Z,0
2016-12-12T17:01:19.563Z,0
2016-12-12T17:02:29.917Z,0
2016-12-12T17:03:39.943Z,0
2016-12-12T17:04:49.648Z,0
2016-12-12T17:05:59.367Z,0
2016-12-12T17:07:09.420Z,0
2016-12-12T17:08:19.800Z,0
2016-12-12T17:09:29.832Z,0
2016-12-12T17:10:40.157Z,0
2016-12-12T17:11:50.494Z,0
2016-12-12T17:13:00.829Z,0
2016-12-12T17:14:10.861Z,0
2016-12-12T17:15:20.881Z,0
2016-12-12T17:16:30.917Z,0
2016-12-12T17:17:40.955Z,0
2016-12-12T17:18:51.307Z,0
2016-12-12T17:20:01.645Z,0
2016-12-12T17:21:11.036Z,0
2016-12-12T17:22:20.738Z,0
2016-12-12T17:23:31.062Z,0
2016-12-12T17:24:41.079Z,0
2016-12-12T17:25:51.416Z,0
2016-12-12T17:27:01.760Z,0
2016-12-12T17:28:11.471Z,0
2016-12-12T17:29:21.833Z,0